KOLS/OLS METAR and TAF weather

Enter ICAO airport designator
Station Type Date Time Source
KOLS METAR 2020/09/22 20:54 UTC NOAA

KOLS 222054Z AUTO 24009KT 10SM CLR 30/11 A3013 RMK AO2 SLP133 T03000106 56017


Station Type Date Time Source
KOLS Decoded METAR 2020/09/22 20:54 UTC NOAA

NOGALES INTERNATIONAL AIRPORT , AZ, United States (KOLS) 31-25N 110-51W 1184M
Sep 22, 2020 - 04:54 PM EDT / 2020.09.22 2054 UTC
Wind: from the WSW (240 degrees) at 10 MPH (9 KT):0
Visibility: 10 mile(s):0
Sky conditions: clear
Temperature: 86.0 F (30.0 C)
Dew Point: 51.1 F (10.6 C)
Relative Humidity: 30%
Pressure (altimeter): 30.13 in. Hg (1020 hPa)
Pressure tendency: 0.05 inches (1.7 hPa) lower than three hours ago
ob: KOLS 222054Z AUTO 24009KT 10SM CLR 30/11 A3013 RMK AO2 SLP133 T03000106 56017
cycle: 21

Station Type Date Time Source
KOLS TAF 2020/09/22 18:22 UTC NOAA

TAF KOLS 221720Z 2218/2318 31006KT P6SM FEW100
FM222000 27008KT P6SM VCSH SCT090
FM230100 30009KT P6SM FEW070
FM230400 VRB04KT P6SM SKC

Example: see airport list